createdAt,value
2019-04-14T00:01:41.874Z,7.80
2019-04-14T00:04:12.041Z,7.57
2019-04-14T00:06:41.902Z,8.33
2019-04-14T00:09:14.014Z,7.97
2019-04-14T00:11:41.831Z,7.97
2019-04-14T00:14:10.354Z,7.63
2019-04-14T00:16:40.166Z,8.00
2019-04-14T00:19:08.833Z,7.57
2019-04-14T00:21:37.234Z,8.20
2019-04-14T00:24:07.284Z,8.33
2019-04-14T00:26:36.186Z,8.43
2019-04-14T00:29:06.688Z,8.23
2019-04-14T00:31:35.292Z,7.50
2019-04-14T00:34:05.722Z,7.23
2019-04-14T00:36:41.646Z,7.43
2019-04-14T00:39:27.310Z,7.53
2019-04-14T00:42:04.710Z,7.60
2019-04-14T00:44:40.982Z,7.70
2019-04-14T00:47:27.502Z,7.23
2019-04-14T00:49:57.174Z,8.33
2019-04-14T00:52:25.830Z,7.83
2019-04-14T00:54:54.387Z,8.50
2019-04-14T00:57:22.863Z,8.03
2019-04-14T00:59:51.417Z,7.80
2019-04-14T01:02:20.994Z,4.53
2019-04-14T01:04:49.649Z,8.10
2019-04-14T01:07:18.082Z,7.13
2019-04-14T01:09:46.537Z,7.93
2019-04-14T01:12:14.977Z,6.93
2019-04-14T01:14:43.448Z,5.60
2019-04-14T01:17:11.941Z,7.60
2019-04-14T01:19:41.655Z,7.60
2019-04-14T01:22:10.124Z,7.07
2019-04-14T01:24:38.577Z,7.80
2019-04-14T01:27:08.121Z,6.97
2019-04-14T01:29:36.602Z,5.77
2019-04-14T01:32:06.306Z,7.33
2019-04-14T01:34:35.183Z,7.80
2019-04-14T01:37:05.010Z,4.50
2019-04-14T01:39:34.926Z,4.63
2019-04-14T01:42:04.838Z,7.43
2019-04-14T01:44:33.433Z,7.33
2019-04-14T01:47:03.014Z,4.63
2019-04-14T01:49:31.600Z,5.23
2019-04-14T01:52:05.497Z,7.77
2019-04-14T01:54:38.868Z,8.17
2019-04-14T01:57:17.672Z,8.33
2019-04-14T01:59:46.196Z,8.70
2019-04-14T02:02:16.356Z,7.97
2019-04-14T02:04:44.898Z,7.10
2019-04-14T02:07:14.464Z,7.93
2019-04-14T02:09:43.086Z,8.07
2019-04-14T02:12:12.766Z,8.03
2019-04-14T02:14:41.338Z,8.57
2019-04-14T02:17:11.074Z,8.20
2019-04-14T02:19:39.716Z,8.57
2019-04-14T02:22:09.459Z,4.80
2019-04-14T02:24:37.990Z,7.53
2019-04-14T02:27:07.638Z,7.17
2019-04-14T02:29:36.271Z,7.70
2019-04-14T02:32:37.284Z,5.63
2019-04-14T02:35:02.081Z,8.00
2019-04-14T02:40:24.302Z,8.03
2019-04-14T02:42:36.679Z,8.60
2019-04-14T02:45:02.226Z,8.07
2019-04-14T02:57:30.500Z,8.17
2019-04-14T03:02:48.763Z,8.23
2019-04-14T03:10:00.719Z,8.30
2019-04-14T03:12:34.656Z,8.50
2019-04-14T03:15:01.558Z,8.37
2019-04-14T03:20:22.935Z,9.70
2019-04-14T03:22:53.609Z,5.67
2019-04-14T03:25:29.377Z,9.77
2019-04-14T03:28:27.722Z,9.30
2019-04-14T03:38:36.570Z,9.13
2019-04-14T03:41:08.801Z,9.70
2019-04-14T03:43:30.588Z,8.67
2019-04-14T03:51:04.942Z,9.43
2019-04-14T03:55:55.343Z,10.37
2019-04-14T03:58:22.563Z,10.33
2019-04-14T04:00:51.484Z,9.97
2019-04-14T04:03:20.081Z,9.83
2019-04-14T04:05:48.552Z,10.57
2019-04-14T04:08:17.999Z,9.63
2019-04-14T04:10:51.115Z,9.53
2019-04-14T04:13:19.816Z,10.20
2019-04-14T04:15:49.754Z,10.53
2019-04-14T04:18:26.564Z,10.07
2019-04-14T04:21:12.586Z,9.60
2019-04-14T04:23:55.421Z,10.43
2019-04-14T04:26:38.546Z,10.13
2019-04-14T04:29:09.137Z,11.10
2019-04-14T04:31:54.748Z,10.00
2019-04-14T04:34:42.577Z,9.90
2019-04-14T04:37:12.832Z,10.13
2019-04-14T04:39:43.297Z,10.17
2019-04-14T04:42:11.782Z,9.60
2019-04-14T04:44:40.295Z,10.70
2019-04-14T04:47:09.794Z,9.17
2019-04-14T04:49:38.501Z,10.17
2019-04-14T04:52:09.947Z,9.30
2019-04-14T04:54:37.175Z,9.57
2019-04-14T04:57:06.812Z,9.97
2019-04-14T04:59:36.594Z,9.37
2019-04-14T05:02:05.340Z,9.43
2019-04-14T05:04:35.009Z,10.23
2019-04-14T05:07:03.719Z,9.80
2019-04-14T05:09:36.653Z,9.17
2019-04-14T05:12:24.248Z,9.67
2019-04-14T05:14:57.365Z,9.27
2019-04-14T05:17:27.713Z,10.13
2019-04-14T05:19:56.305Z,9.50
2019-04-14T05:22:26.669Z,10.03
2019-04-14T05:24:55.326Z,10.07
2019-04-14T05:27:23.818Z,9.60
2019-04-14T05:29:52.273Z,9.57
2019-04-14T05:32:21.610Z,9.60
2019-04-14T05:34:50.245Z,9.97
2019-04-14T05:37:18.769Z,9.93
2019-04-14T05:39:48.312Z,9.20
2019-04-14T05:42:20.982Z,9.37
2019-04-14T05:44:47.180Z,9.50
2019-04-14T05:47:15.631Z,9.93
2019-04-14T05:49:48.205Z,10.20
2019-04-14T05:52:14.282Z,9.90
2019-04-14T05:54:42.722Z,9.10
2019-04-14T05:57:11.278Z,9.93
2019-04-14T05:59:39.812Z,9.47
2019-04-14T06:02:09.320Z,11.30
2019-04-14T06:04:37.836Z,9.73
2019-04-14T06:07:06.285Z,9.90
2019-04-14T06:09:34.746Z,10.73
2019-04-14T06:12:03.197Z,10.27
2019-04-14T06:14:31.658Z,10.53
2019-04-14T06:17:00.096Z,10.97
2019-04-14T06:19:36.999Z,10.33
2019-04-14T06:21:58.982Z,9.80
2019-04-14T06:24:27.433Z,9.03
2019-04-14T06:26:55.875Z,9.40
2019-04-14T06:29:24.333Z,9.90
2019-04-14T06:31:57.216Z,10.63
2019-04-14T06:34:43.082Z,10.17
2019-04-14T06:37:15.895Z,9.77
2019-04-14T06:39:45.977Z,10.60
2019-04-14T06:42:14.421Z,9.97
2019-04-14T06:44:42.869Z,9.20
2019-04-14T06:47:11.315Z,8.80
2019-04-14T06:49:48.787Z,7.97
2019-04-14T06:52:09.919Z,7.43
2019-04-14T06:54:38.367Z,6.47
2019-04-14T06:57:06.827Z,7.33
2019-04-14T06:59:35.262Z,7.13
2019-04-14T07:02:03.709Z,6.97
2019-04-14T07:04:32.240Z,5.60
2019-04-14T07:07:00.708Z,6.03
2019-04-14T07:09:29.214Z,6.20
2019-04-14T07:11:57.694Z,6.10
2019-04-14T07:14:26.183Z,5.87
2019-04-14T07:16:54.640Z,6.97
2019-04-14T07:19:23.079Z,6.00
2019-04-14T07:21:51.536Z,5.83
2019-04-14T07:24:19.959Z,5.30
2019-04-14T07:26:48.412Z,6.03
2019-04-14T07:29:16.903Z,6.13
2019-04-14T07:31:52.566Z,6.07
2019-04-14T07:34:22.641Z,5.53
2019-04-14T07:36:52.736Z,5.83
2019-04-14T07:39:31.608Z,5.83
2019-04-14T07:42:16.736Z,6.00
2019-04-14T07:44:46.798Z,5.60
2019-04-14T07:47:28.399Z,5.73
2019-04-14T07:50:08.791Z,6.67
2019-04-14T07:52:35.704Z,6.00
2019-04-14T07:55:06.215Z,6.13
2019-04-14T07:57:52.102Z,6.10
2019-04-14T08:00:37.102Z,6.40
2019-04-14T08:03:07.266Z,6.40
2019-04-14T08:05:37.342Z,6.03
2019-04-14T08:08:05.779Z,6.10
2019-04-14T08:10:34.265Z,6.57
2019-04-14T08:13:02.729Z,6.27
2019-04-14T08:15:31.366Z,4.87
2019-04-14T08:17:59.800Z,5.80
2019-04-14T08:20:28.263Z,5.77
2019-04-14T08:22:57.851Z,6.43
2019-04-14T08:25:26.500Z,6.50
2019-04-14T08:27:55.019Z,5.27
2019-04-14T08:30:23.555Z,5.57
2019-04-14T08:32:51.995Z,4.73
2019-04-14T08:35:20.511Z,5.00
2019-04-14T08:37:48.943Z,4.97
2019-04-14T08:40:17.535Z,5.73
2019-04-14T08:42:59.520Z,4.93
2019-04-14T08:45:29.718Z,7.50
2019-04-14T08:48:15.877Z,8.00
2019-04-14T08:51:02.265Z,7.70
2019-04-14T08:53:35.124Z,7.50
2019-04-14T08:56:14.046Z,7.70
2019-04-14T08:58:46.859Z,7.90
2019-04-14T09:01:17.012Z,7.17
2019-04-14T09:03:47.164Z,7.67
2019-04-14T09:06:29.286Z,7.30
2019-04-14T09:09:07.815Z,7.43
2019-04-14T09:11:52.552Z,6.83
2019-04-14T09:14:20.993Z,7.23
2019-04-14T09:16:49.443Z,7.63
2019-04-14T09:19:17.879Z,5.90
2019-04-14T09:21:46.338Z,7.90
2019-04-14T09:24:14.826Z,8.00
2019-04-14T09:26:43.279Z,8.13
2019-04-14T09:29:11.726Z,7.40
2019-04-14T09:31:40.174Z,7.43
2019-04-14T09:34:08.612Z,7.80
2019-04-14T09:36:37.066Z,7.23
2019-04-14T09:39:07.062Z,7.77
2019-04-14T09:41:36.062Z,6.80
2019-04-14T09:44:04.642Z,7.80
2019-04-14T09:46:33.065Z,6.70
2019-04-14T09:49:01.530Z,6.67
2019-04-14T09:51:29.970Z,5.97
2019-04-14T09:53:58.489Z,6.00
2019-04-14T09:56:26.934Z,6.47
2019-04-14T09:58:55.402Z,4.93
2019-04-14T10:01:24.505Z,5.70
2019-04-14T10:03:52.983Z,5.73
2019-04-14T10:06:21.433Z,4.17
2019-04-14T10:08:49.959Z,4.50
2019-04-14T10:11:18.464Z,6.33
2019-04-14T10:13:46.915Z,6.27
2019-04-14T10:16:15.359Z,6.03
2019-04-14T10:18:43.807Z,5.90
2019-04-14T10:21:17.684Z,5.37
2019-04-14T10:23:42.484Z,6.50
2019-04-14T10:26:10.992Z,6.60
2019-04-14T10:28:39.425Z,6.17
2019-04-14T10:31:07.930Z,6.50
2019-04-14T10:33:36.397Z,6.17
2019-04-14T10:36:04.904Z,5.67
2019-04-14T10:38:33.364Z,6.77
2019-04-14T10:41:01.824Z,6.27
2019-04-14T10:43:30.301Z,6.30
2019-04-14T10:45:58.735Z,6.07
2019-04-14T10:48:27.222Z,5.93
2019-04-14T10:50:55.736Z,5.77
2019-04-14T10:53:24.194Z,6.60
2019-04-14T10:55:53.012Z,6.63
2019-04-14T10:58:21.451Z,6.43
2019-04-14T11:00:50.176Z,4.23
2019-04-14T11:03:18.609Z,5.00
2019-04-14T11:05:57.562Z,6.63
2019-04-14T11:08:25.997Z,6.10
2019-04-14T11:10:54.460Z,6.50
2019-04-14T11:13:22.900Z,6.77
2019-04-14T11:15:51.358Z,6.30
2019-04-14T11:18:19.860Z,6.70
2019-04-14T11:20:48.319Z,6.63
2019-04-14T11:23:16.763Z,6.50
2019-04-14T11:25:45.225Z,5.97
2019-04-14T11:28:13.693Z,5.93
2019-04-14T11:30:42.210Z,6.67
2019-04-14T11:33:12.286Z,6.80
2019-04-14T11:35:48.089Z,6.90
2019-04-14T11:38:23.845Z,6.97
2019-04-14T11:40:56.692Z,7.07
2019-04-14T11:43:25.182Z,6.87
2019-04-14T11:45:53.780Z,6.83
2019-04-14T11:48:22.323Z,7.60
2019-04-14T11:50:50.782Z,6.43
2019-04-14T11:53:19.300Z,6.40
2019-04-14T11:55:47.762Z,6.70
2019-04-14T11:58:16.208Z,6.63
2019-04-14T12:00:48.923Z,6.90
2019-04-14T12:03:32.254Z,6.97
2019-04-14T12:06:18.475Z,6.93
2019-04-14T12:08:50.979Z,6.57
2019-04-14T12:11:19.555Z,6.57
2019-04-14T12:13:48.012Z,7.13
2019-04-14T12:16:16.450Z,7.17
2019-04-14T12:18:44.931Z,7.37
2019-04-14T12:21:13.390Z,7.23
2019-04-14T12:23:41.843Z,8.57
2019-04-14T12:26:10.316Z,7.87
2019-04-14T12:28:38.916Z,8.23
2019-04-14T12:31:08.738Z,8.60
2019-04-14T12:33:37.242Z,9.20
2019-04-14T12:36:08.755Z,9.60
2019-04-14T12:38:37.219Z,10.60
2019-04-14T12:41:08.240Z,10.47
2019-04-14T12:43:38.483Z,10.70
2019-04-14T12:46:26.733Z,10.60
2019-04-14T12:49:02.575Z,9.67
2019-04-14T12:51:38.238Z,10.20
2019-04-14T12:54:06.787Z,10.60
2019-04-14T12:56:35.243Z,11.47
2019-04-14T12:59:05.351Z,11.70
2019-04-14T13:01:44.107Z,12.20
2019-04-14T13:04:12.616Z,12.53
2019-04-14T13:06:41.056Z,14.00
2019-04-14T13:09:10.437Z,13.20
2019-04-14T13:11:38.959Z,14.73
2019-04-14T13:14:07.445Z,13.53
2019-04-14T13:16:36.097Z,15.73
2019-04-14T13:19:04.662Z,13.67
2019-04-14T13:21:33.128Z,15.47
2019-04-14T13:24:01.590Z,14.77
2019-04-14T13:26:30.026Z,12.70
2019-04-14T13:28:58.486Z,15.00
2019-04-14T13:31:26.937Z,14.53
2019-04-14T13:33:55.455Z,15.67
2019-04-14T13:36:23.972Z,15.20
2019-04-14T13:38:52.441Z,15.47
2019-04-14T13:41:20.886Z,16.53
2019-04-14T13:43:49.356Z,16.33
2019-04-14T13:46:17.800Z,14.47
2019-04-14T13:48:46.256Z,16.17
2019-04-14T13:51:14.711Z,17.13
2019-04-14T13:53:43.220Z,16.07
2019-04-14T13:56:11.741Z,16.87
2019-04-14T13:58:40.864Z,16.40
2019-04-14T14:01:09.436Z,16.37
2019-04-14T14:03:37.909Z,15.87
2019-04-14T14:06:06.434Z,16.10
2019-04-14T14:08:34.951Z,14.30
2019-04-14T14:11:07.725Z,14.83
2019-04-14T14:13:37.883Z,17.20
2019-04-14T14:16:10.710Z,15.73
2019-04-14T14:18:40.937Z,18.60
2019-04-14T14:21:20.103Z,15.63
2019-04-14T14:23:58.675Z,16.03
2019-04-14T14:26:28.785Z,16.30
2019-04-14T14:28:57.247Z,16.13
2019-04-14T14:31:25.714Z,16.37
2019-04-14T14:33:54.188Z,16.90
2019-04-14T14:36:22.735Z,16.80
2019-04-14T14:38:51.249Z,17.63
2019-04-14T14:41:19.770Z,18.17
2019-04-14T14:43:48.211Z,19.23
2019-04-14T14:46:30.135Z,18.33
2019-04-14T14:49:09.062Z,19.87
2019-04-14T14:51:54.139Z,19.33
2019-04-14T14:54:22.665Z,20.57
2019-04-14T14:56:51.123Z,20.33
2019-04-14T14:59:19.576Z,20.90
2019-04-14T15:01:48.040Z,20.90
2019-04-14T15:04:18.906Z,21.00
2019-04-14T15:06:46.746Z,21.57
2019-04-14T18:12:40.729Z,23.27
2019-04-14T18:15:16.732Z,23.47
2019-04-14T18:18:04.714Z,25.13
2019-04-14T18:20:37.495Z,24.17
2019-04-14T18:23:05.974Z,24.00
2019-04-14T18:25:34.439Z,24.20
2019-04-14T18:28:13.560Z,25.03
2019-04-14T18:30:43.661Z,21.80
2019-04-14T18:33:16.739Z,22.17
2019-04-14T18:35:49.577Z,23.50
2019-04-14T18:38:28.717Z,24.60
2019-04-14T18:40:58.817Z,24.10
2019-04-14T18:43:28.920Z,22.27
2019-04-14T18:46:07.624Z,21.90
2019-04-14T18:48:43.720Z,23.23
2019-04-14T18:51:19.838Z,22.27
2019-04-14T18:54:07.979Z,20.70
2019-04-14T18:56:44.211Z,21.50
2019-04-14T18:59:14.362Z,21.27
2019-04-14T19:01:46.872Z,21.90
2019-04-14T19:04:15.423Z,21.77
2019-04-14T19:06:43.916Z,20.63
2019-04-14T19:09:12.425Z,21.23
2019-04-14T19:11:45.252Z,21.93
2019-04-14T19:14:15.488Z,21.57
2019-04-14T19:16:45.610Z,21.40
2019-04-14T19:19:14.863Z,21.53
2019-04-14T19:21:43.407Z,22.47
2019-04-14T19:24:11.868Z,22.13
2019-04-14T19:26:40.389Z,21.50
2019-04-14T19:29:08.891Z,20.57
2019-04-14T19:31:37.362Z,21.10
2019-04-14T19:34:05.822Z,20.80
2019-04-14T19:36:34.282Z,20.70
2019-04-14T19:39:04.503Z,21.23
2019-04-14T19:41:32.954Z,21.00
2019-04-14T19:44:01.421Z,20.23
2019-04-14T19:46:29.948Z,21.97
2019-04-14T19:48:58.413Z,21.17
2019-04-14T19:51:26.873Z,20.70
2019-04-14T19:53:55.390Z,20.40
2019-04-14T19:56:23.871Z,20.50
2019-04-14T19:58:52.316Z,19.97
2019-04-14T20:01:20.784Z,20.33
2019-04-14T20:03:49.318Z,19.83
2019-04-14T20:06:17.795Z,18.53
2019-04-14T20:08:46.242Z,19.13
2019-04-14T20:11:15.007Z,18.50
2019-04-14T20:13:45.172Z,18.93
2019-04-14T20:16:18.163Z,18.47
2019-04-14T20:19:10.216Z,17.57
2019-04-14T20:21:44.481Z,18.00
2019-04-14T20:24:30.575Z,14.90
2019-04-14T20:27:06.779Z,15.63
2019-04-14T20:29:36.955Z,14.73
2019-04-14T20:32:12.719Z,16.10
2019-04-14T20:34:41.187Z,15.20
2019-04-14T20:37:09.649Z,14.70
2019-04-14T20:39:38.131Z,15.77
2019-04-14T20:42:06.855Z,15.40
2019-04-14T20:44:35.655Z,16.03
2019-04-14T20:47:06.077Z,15.43
2019-04-14T20:49:34.553Z,15.33
2019-04-14T20:52:02.998Z,15.03
2019-04-14T20:54:31.465Z,13.13
2019-04-14T20:56:59.912Z,14.03
2019-04-14T20:59:28.370Z,13.30
2019-04-14T21:02:00.917Z,13.73
2019-04-14T21:04:36.792Z,13.93
2019-04-14T21:07:22.051Z,12.77
2019-04-14T21:09:54.574Z,12.10
2019-04-14T21:12:24.702Z,12.50
2019-04-14T21:15:06.609Z,12.20
2019-04-14T21:17:45.606Z,13.00
2019-04-14T21:20:18.622Z,12.00
2019-04-14T21:22:51.422Z,11.00
2019-04-14T21:25:23.982Z,11.70
2019-04-14T21:27:56.798Z,10.67
2019-04-14T21:30:29.914Z,11.10
2019-04-14T21:33:18.100Z,11.93
2019-04-14T21:35:55.990Z,9.93
2019-04-14T21:38:44.830Z,10.83
2019-04-14T21:41:17.393Z,10.43
2019-04-14T21:43:57.648Z,10.80
2019-04-14T21:46:28.274Z,11.00
2019-04-14T21:48:56.789Z,10.13
2019-04-14T21:51:26.975Z,10.27
2019-04-14T21:53:55.478Z,9.97
2019-04-14T21:56:25.565Z,10.47
2019-04-14T21:59:07.767Z,11.13
2019-04-14T22:01:40.655Z,9.97
2019-04-14T22:04:10.824Z,10.27
2019-04-14T22:06:43.373Z,9.93
2019-04-14T22:09:15.899Z,10.07
2019-04-14T22:11:44.335Z,10.93
2019-04-14T22:14:12.793Z,9.63
2019-04-14T22:16:41.239Z,9.60
2019-04-14T22:19:09.707Z,9.80
2019-04-14T22:21:38.227Z,9.67
2019-04-14T22:24:06.763Z,9.93
2019-04-14T22:26:35.201Z,10.03
2019-04-14T22:29:03.662Z,9.60
2019-04-14T22:31:32.097Z,9.10
2019-04-14T22:34:00.565Z,9.63
2019-04-14T22:36:29.011Z,10.20
2019-04-14T22:38:57.471Z,10.13
2019-04-14T22:41:25.917Z,10.10
2019-04-14T22:43:54.353Z,10.67
2019-04-14T22:46:22.795Z,9.73
2019-04-14T22:48:51.255Z,9.07
2019-04-14T22:51:19.711Z,10.13
2019-04-14T22:53:48.174Z,9.17
2019-04-14T22:56:16.610Z,10.20
2019-04-14T22:58:45.066Z,10.13
2019-04-14T23:01:18.090Z,9.97
2019-04-14T23:04:03.258Z,9.87
2019-04-14T23:06:33.401Z,9.70
2019-04-14T23:09:06.524Z,10.47
2019-04-14T23:11:53.052Z,9.70
2019-04-14T23:14:23.227Z,9.97
2019-04-14T23:16:58.724Z,10.23
2019-04-14T23:19:45.130Z,10.27
2019-04-14T23:22:26.936Z,10.30
2019-04-14T23:24:55.408Z,9.33
2019-04-14T23:27:23.850Z,10.07
2019-04-14T23:29:52.305Z,10.33
2019-04-14T23:32:20.823Z,9.70
2019-04-14T23:34:49.274Z,10.00
2019-04-14T23:37:18.209Z,9.60
2019-04-14T23:39:46.797Z,10.10
2019-04-14T23:42:15.246Z,9.87
2019-04-14T23:44:43.698Z,10.20
2019-04-14T23:47:12.159Z,10.23
2019-04-14T23:49:40.599Z,9.33
2019-04-14T23:52:09.052Z,10.37
2019-04-14T23:54:37.496Z,9.50
2019-04-14T23:57:06.829Z,9.47
2019-04-14T23:59:35.472Z,10.13
